Map

Track Data

SID SEASON NUMBER BASIN SUBBASIN NAME ISO_TIME NATURE LAT LON WMO_WIND WMO_PRES WMO_AGENCY TRACK_TYPE DIST2LAND LANDFALL IFLAG USA_AGENCY USA_ATCF_ID USA_LAT USA_LON USA_RECORD USA_STATUS USA_WIND USA_PRES USA_SSHS USA_R34_NE USA_R34_SE USA_R34_SW USA_R34_NW USA_R50_NE USA_R50_SE USA_R50_SW USA_R50_NW USA_R64_NE USA_R64_SE USA_R64_SW USA_R64_NW USA_POCI USA_ROCI USA_RMW USA_EYE TOKYO_LAT TOKYO_LON TOKYO_GRADE TOKYO_WIND TOKYO_PRES TOKYO_R50_DIR TOKYO_R50_LONG TOKYO_R50_SHORT TOKYO_R30_DIR TOKYO_R30_LONG TOKYO_R30_SHORT TOKYO_LAND CMA_LAT CMA_LON CMA_CAT CMA_WIND CMA_PRES HKO_LAT HKO_LON HKO_CAT HKO_WIND HKO_PRES NEWDELHI_LAT NEWDELHI_LON NEWDELHI_GRADE NEWDELHI_WIND NEWDELHI_PRES NEWDELHI_CI NEWDELHI_DP NEWDELHI_POCI REUNION_LAT REUNION_LON REUNION_TYPE REUNION_WIND REUNION_PRES REUNION_TNUM REUNION_CI REUNION_RMW REUNION_R34_NE REUNION_R34_SE REUNION_R34_SW REUNION_R34_NW REUNION_R50_NE REUNION_R50_SE REUNION_R50_SW REUNION_R50_NW REUNION_R64_NE REUNION_R64_SE REUNION_R64_SW REUNION_R64_NW BOM_LAT BOM_LON BOM_TYPE BOM_WIND BOM_PRES BOM_TNUM BOM_CI BOM_RMW BOM_R34_NE BOM_R34_SE BOM_R34_SW BOM_R34_NW BOM_R50_NE BOM_R50_SE BOM_R50_SW BOM_R50_NW BOM_R64_NE BOM_R64_SE BOM_R64_SW BOM_R64_NW BOM_ROCI BOM_POCI BOM_EYE BOM_POS_METHOD BOM_PRES_METHOD NADI_LAT NADI_LON NADI_CAT NADI_WIND NADI_PRES WELLINGTON_LAT WELLINGTON_LON WELLINGTON_WIND WELLINGTON_PRES DS824_LAT DS824_LON DS824_STAGE DS824_WIND DS824_PRES TD9636_LAT TD9636_LON TD9636_STAGE TD9636_WIND TD9636_PRES TD9635_LAT TD9635_LON TD9635_WIND TD9635_PRES TD9635_ROCI NEUMANN_LAT NEUMANN_LON NEUMANN_CLASS NEUMANN_WIND NEUMANN_PRES MLC_LAT MLC_LON MLC_CLASS MLC_WIND MLC_PRES USA_GUST BOM_GUST BOM_GUST_PER REUNION_GUST REUNION_GUST_PER USA_SEAHGT USA_SEARAD_NE USA_SEARAD_SE USA_SEARAD_SW USA_SEARAD_NW STORM_SPEED STORM_DIR
1928236N17132 1928 46 WP MM NOT_NAMED 1928-08-23 10:00:00 NR 16.8000 132.200 main 886 886 __________O___ -1 16.8000 132.200 7 1 0
1928236N17132 1928 46 WP MM NOT_NAMED 1928-08-23 12:00:00 NR 16.8077 132.224 main 886 886 __________P___ -1 16.8077 132.224 7 0 0
1928236N17132 1928 46 WP MM NOT_NAMED 1928-08-23 15:00:00 NR 16.8166 132.195 main 886 868 __________P___ -1 16.8166 132.195 7 2 273
1928236N17132 1928 46 WP MM NOT_NAMED 1928-08-23 18:00:00 NR 16.8182 131.998 main 868 826 __________P___ -1 16.8182 131.998 7 6 269
1928236N17132 1928 46 WP MM NOT_NAMED 1928-08-23 21:00:00 NR 16.8074 131.532 main 826 808 __________P___ -1 16.8074 131.532 7 10 268
1928236N17132 1928 46 WP MM NOT_NAMED 1928-08-23 22:00:00 NR 16.8000 131.300 main 808 749 __________O___ -1 16.8000 131.300 2 16 268
1928236N17132 1928 46 WP MM NOT_NAMED 1928-08-24 00:00:00 NR 16.7788 130.709 main 749 639 __________P___ -1 16.7788 130.709 2 20 268
1928236N17132 1928 46 WP MM NOT_NAMED 1928-08-24 03:00:00 NR 16.7388 129.575 main 639 522 __________P___ -1 16.7388 129.575 2 23 268
1928236N17132 1928 46 WP MM NOT_NAMED 1928-08-24 06:00:00 NR 16.7041 128.270 main 522 411 __________P___ -1 16.7041 128.270 2 25 269
1928236N17132 1928 46 WP MM NOT_NAMED 1928-08-24 09:00:00 NR 16.6940 126.930 main 411 390 __________P___ -1 16.6940 126.930 2 25 270
1928236N17132 1928 46 WP MM NOT_NAMED 1928-08-24 10:00:00 NR 16.7000 126.500 main 383 340 __________O___ -1 16.7000 126.500 2 23 273
1928236N17132 1928 46 WP MM NOT_NAMED 1928-08-24 12:00:00 NR 16.7552 125.738 main 340 223 __________P___ -1 16.7552 125.738 2 22 275
1928236N17132 1928 46 WP MM NOT_NAMED 1928-08-24 15:00:00 NR 16.8712 124.625 main 223 116 __________P___ -1 16.8712 124.625 2 21 276
1928236N17132 1928 46 WP MM NOT_NAMED 1928-08-24 18:00:00 NR 16.9933 123.553 main 116 10 __________P___ -1 16.9933 123.553 2 20 276
1928236N17132 1928 46 WP MM NOT_NAMED 1928-08-24 21:00:00 NR 17.0835 122.529 main 10 0 __________P___ -1 17.0835 122.529 2 19 275
1928236N17132 1928 46 WP MM NOT_NAMED 1928-08-24 22:00:00 NR 17.1000 122.200 main 0 0 __________O___ -1 17.1000 122.200 2 19 270
1928236N17132 1928 46 WP MM NOT_NAMED 1928-08-25 00:00:00 NR 17.0885 121.549 main 0 0 __________P___ -1 17.0885 121.549 2 18 267
1928236N17132 1928 46 WP MM NOT_NAMED 1928-08-25 03:00:00 NR 17.0284 120.617 main 0 0 __________P___ -1 17.0284 120.617 2 17 265
1928236N17132 1928 46 WP MM NOT_NAMED 1928-08-25 06:00:00 NR 16.9361 119.730 main 67 67 __________P___ -1 16.9361 119.730 2 17 263
1928236N17132 1928 46 WP MM NOT_NAMED 1928-08-25 09:00:00 NR 16.8331 118.878 main 111 120 __________P___ -1 16.8331 118.878 2 16 263
1928236N17132 1928 46 WP MM NOT_NAMED 1928-08-25 10:00:00 NR 16.8000 118.600 main 139 139 __________O___ -1 16.8000 118.600 2 17 264
1928236N17132 1928 46 WP MM NOT_NAMED 1928-08-25 12:00:00 NR 16.7418 118.012 main 197 197 __________P___ -1 16.7418 118.012 2 17 264
1928236N17132 1928 46 WP MM NOT_NAMED 1928-08-25 15:00:00 NR 16.6549 117.156 main 278 285 __________P___ -1 16.6549 117.156 2 16 264
1928236N17132 1928 46 WP MM NOT_NAMED 1928-08-25 18:00:00 NR 16.5763 116.350 main 358 369 __________P___ -1 16.5763 116.350 2 15 265
1928236N17132 1928 46 WP MM NOT_NAMED 1928-08-25 21:00:00 NR 16.5150 115.621 main 441 441 __________P___ -1 16.5150 115.621 2 14 265
1928236N17132 1928 46 WP MM NOT_NAMED 1928-08-25 22:00:00 NR 16.5000 115.400 main 462 462 __________O___ -1 16.5000 115.400 2 12 267
1928236N17132 1928 46 WP MM NOT_NAMED 1928-08-26 00:00:00 NR 16.4843 114.999 main 504 495 __________P___ -1 16.4843 114.999 2 11 269
1928236N17132 1928 46 WP MM NOT_NAMED 1928-08-26 03:00:00 NR 16.4807 114.472 main 495 451 __________P___ -1 16.4807 114.472 2 10 270
1928236N17132 1928 46 WP MM NOT_NAMED 1928-08-26 06:00:00 NR 16.4900 114.002 main 451 417 __________P___ -1 16.4900 114.002 2 9 271
1928236N17132 1928 46 WP MM NOT_NAMED 1928-08-26 09:00:00 NR 16.4992 113.552 main 417 400 __________P___ -1 16.4992 113.552 2 9 271
1928236N17132 1928 46 WP MM NOT_NAMED 1928-08-26 10:00:00 NR 16.5000 113.400 main 400 377 __________O___ -1 16.5000 113.400 2 10 268
1928236N17132 1928 46 WP MM NOT_NAMED 1928-08-26 12:00:00 NR 16.4864 113.051 main 377 331 __________P___ -1 16.4864 113.051 2 10 267
1928236N17132 1928 46 WP MM NOT_NAMED 1928-08-26 15:00:00 NR 16.4598 112.527 main 331 308 __________P___ -1 16.4598 112.527 2 10 267
1928236N17132 1928 46 WP MM NOT_NAMED 1928-08-26 18:00:00 NR 16.4310 112.019 main 308 274 __________P___ -1 16.4310 112.019 2 9 267
1928236N17132 1928 46 WP MM NOT_NAMED 1928-08-26 21:00:00 NR 16.4062 111.547 main 274 268 __________P___ -1 16.4062 111.547 2 9 267
1928236N17132 1928 46 WP MM NOT_NAMED 1928-08-26 22:00:00 NR 16.4000 111.400 main 268 250 __________O___ -1 16.4000 111.400 2 8 267
1928236N17132 1928 46 WP MM NOT_NAMED 1928-08-27 00:00:00 NR 16.3860 111.130 main 250 232 __________P___ -1 16.3860 111.130 2 7 267
1928236N17132 1928 46 WP MM NOT_NAMED 1928-08-27 03:00:00 NR 16.3715 110.762 main 232 209 __________P___ -1 16.3715 110.762 2 7 269
1928236N17132 1928 46 WP MM NOT_NAMED 1928-08-27 06:00:00 NR 16.3703 110.426 main 209 185 __________P___ -1 16.3703 110.426 2 6 272
1928236N17132 1928 46 WP MM NOT_NAMED 1928-08-27 09:00:00 NR 16.3886 110.106 main 185 177 __________P___ -1 16.3886 110.106 2 6 274
1928236N17132 1928 46 WP MM NOT_NAMED 1928-08-27 10:00:00 NR 16.4000 110.000 main 177 162 __________O___ -1 16.4000 110.000 2 7 276
1928236N17132 1928 46 WP MM NOT_NAMED 1928-08-27 12:00:00 NR 16.4224 109.757 main 162 130 __________P___ -1 16.4224 109.757 2 7 277
1928236N17132 1928 46 WP MM NOT_NAMED 1928-08-27 15:00:00 NR 16.4748 109.398 main 130 102 __________P___ -1 16.4748 109.398 2 7 281
1928236N17132 1928 46 WP MM NOT_NAMED 1928-08-27 18:00:00 NR 16.5523 109.065 main 108 85 __________P___ -1 16.5523 109.065 2 6 287
1928236N17132 1928 46 WP MM NOT_NAMED 1928-08-27 21:00:00 NR 16.6579 108.780 main 93 85 __________P___ -1 16.6579 108.780 2 6 293
1928236N17132 1928 46 WP MM NOT_NAMED 1928-08-27 22:00:00 NR 16.7000 108.700 main 85 77 __________O___ -1 16.7000 108.700 2 5 303
1928236N17132 1928 46 WP MM NOT_NAMED 1928-08-28 00:00:00 NR 16.7883 108.573 main 85 79 __________P___ -1 16.7883 108.573 2 4 314
1928236N17132 1928 46 WP MM NOT_NAMED 1928-08-28 03:00:00 NR 16.9462 108.434 main 84 92 __________P___ -1 16.9462 108.434 2 4 326
1928236N17132 1928 46 WP MM NOT_NAMED 1928-08-28 06:00:00 NR 17.1288 108.331 main 93 93 __________P___ -1 17.1288 108.331 2 4 334
1928236N17132 1928 46 WP MM NOT_NAMED 1928-08-28 09:00:00 NR 17.3300 108.235 main 101 101 __________P___ -1 17.3300 108.235 2 5 335
1928236N17132 1928 46 WP MM NOT_NAMED 1928-08-28 10:00:00 NR 17.4000 108.200 main 109 109 __________O___ -1 17.4000 108.200 2 5 329
1928236N17132 1928 46 WP MM NOT_NAMED 1928-08-28 12:00:00 NR 17.5439 108.095 main 113 108 __________P___ -1 17.5439 108.095 2 5 325
1928236N17132 1928 46 WP MM NOT_NAMED 1928-08-28 15:00:00 NR 17.7724 107.932 main 115 107 __________P___ -1 17.7724 107.932 2 6 326
1928236N17132 1928 46 WP MM NOT_NAMED 1928-08-28 18:00:00 NR 18.0050 107.774 main 110 110 __________P___ -1 18.0050 107.774 2 5 329
1928236N17132 1928 46 WP MM NOT_NAMED 1928-08-28 21:00:00 NR 18.2293 107.638 main 120 118 __________P___ -1 18.2293 107.638 2 5 331
1928236N17132 1928 46 WP MM NOT_NAMED 1928-08-28 22:00:00 NR 18.3000 107.600 main 118 116 __________O___ -1 18.3000 107.600 2 4 336
1928236N17132 1928 46 WP MM NOT_NAMED 1928-08-29 00:00:00 NR 18.4306 107.546 main 119 119 __________P___ -1 18.4306 107.546 2 4 342
1928236N17132 1928 46 WP MM NOT_NAMED 1928-08-29 03:00:00 NR 18.6141 107.491 main 126 126 __________P___ -1 18.6141 107.491 2 4 347
1928236N17132 1928 46 WP MM NOT_NAMED 1928-08-29 06:00:00 NR 18.7853 107.453 main 126 126 __________P___ -1 18.7853 107.453 2 3 348
1928236N17132 1928 46 WP MM NOT_NAMED 1928-08-29 09:00:00 NR 18.9475 107.415 main 133 130 __________P___ -1 18.9475 107.415 2 3 347
1928236N17132 1928 46 WP MM NOT_NAMED 1928-08-29 10:00:00 NR 19.0000 107.400 main 130 127 __________O___ -1 19.0000 107.400 2 3 338
1928236N17132 1928 46 WP MM NOT_NAMED 1928-08-29 12:00:00 NR 19.1034 107.364 main 127 127 __________P___ -1 19.1034 107.364 2 3 339
1928236N17132 1928 46 WP MM NOT_NAMED 1928-08-29 15:00:00 NR 19.2552 107.296 main 130 115 __________P___ -1 19.2552 107.296 2 3 335
1928236N17132 1928 46 WP MM NOT_NAMED 1928-08-29 18:00:00 NR 19.4040 107.216 main 115 91 __________P___ -1 19.4040 107.216 2 3 332
1928236N17132 1928 46 WP MM NOT_NAMED 1928-08-29 21:00:00 NR 19.5511 107.130 main 91 91 __________P___ -1 19.5511 107.130 2 3 330
1928236N17132 1928 46 WP MM NOT_NAMED 1928-08-29 22:00:00 NR 19.6000 107.100 main 91 __________O___ -1 19.6000 107.100 7 3 331

Digital Typhoon Data and Search

About IBTrACS Database

This database is a web-friendly format of International Best Track Archive for Climate Stewardship (IBTrACS), a global best track data archive curated by NOAA dating back to 1842.

Updated: 2021-12-03